sensor_id;sensor_type;location;lat;lon;timestamp;temperature;humidity
23411;DHT22;11878;51.774;7.220;2022-11-20T00:01:58;-2.10;99.90
23411;DHT22;11878;51.774;7.220;2022-11-20T00:05:00;-2.20;99.90
23411;DHT22;11878;51.774;7.220;2022-11-20T00:08:02;-1.60;99.90
23411;DHT22;11878;51.774;7.220;2022-11-20T00:11:08;-1.50;99.90
23411;DHT22;11878;51.774;7.220;2022-11-20T00:14:16;-2.30;99.90
23411;DHT22;11878;51.774;7.220;2022-11-20T00:17:20;-2.30;99.90
23411;DHT22;11878;51.774;7.220;2022-11-20T00:20:22;-2.30;99.90
23411;DHT22;11878;51.774;7.220;2022-11-20T00:23:24;-2.40;99.90
23411;DHT22;11878;51.774;7.220;2022-11-20T00:26:27;-1.90;99.90
23411;DHT22;11878;51.774;7.220;2022-11-20T00:29:29;-2.40;99.90
23411;DHT22;11878;51.774;7.220;2022-11-20T00:32:32;-2.30;99.90
23411;DHT22;11878;51.774;7.220;2022-11-20T00:35:34;-2.30;99.90
23411;DHT22;11878;51.774;7.220;2022-11-20T00:38:36;-2.40;99.90
23411;DHT22;11878;51.774;7.220;2022-11-20T00:41:41;-1.20;99.90
23411;DHT22;11878;51.774;7.220;2022-11-20T00:44:43;-2.30;99.90
23411;DHT22;11878;51.774;7.220;2022-11-20T00:47:44;-2.50;99.90
23411;DHT22;11878;51.774;7.220;2022-11-20T00:50:46;-2.60;99.90
23411;DHT22;11878;51.774;7.220;2022-11-20T00:53:49;-2.60;99.90
23411;DHT22;11878;51.774;7.220;2022-11-20T00:56:54;-2.70;99.90
23411;DHT22;11878;51.774;7.220;2022-11-20T00:59:56;-2.60;99.90
23411;DHT22;11878;51.774;7.220;2022-11-20T01:02:58;-1.30;99.90
23411;DHT22;11878;51.774;7.220;2022-11-20T01:09:15;-2.80;99.90
23411;DHT22;11878;51.774;7.220;2022-11-20T01:12:17;-2.80;99.90
23411;DHT22;11878;51.774;7.220;2022-11-20T01:15:19;-2.70;99.90
23411;DHT22;11878;51.774;7.220;2022-11-20T01:18:21;-2.80;99.90
23411;DHT22;11878;51.774;7.220;2022-11-20T01:21:25;-2.80;99.90
23411;DHT22;11878;51.774;7.220;2022-11-20T01:24:27;-2.70;99.90
23411;DHT22;11878;51.774;7.220;2022-11-20T01:27:29;-2.80;99.90
23411;DHT22;11878;51.774;7.220;2022-11-20T01:30:30;-2.90;99.90
23411;DHT22;11878;51.774;7.220;2022-11-20T01:33:32;-2.80;99.90
23411;DHT22;11878;51.774;7.220;2022-11-20T01:36:36;-2.90;99.90
23411;DHT22;11878;51.774;7.220;2022-11-20T01:39:37;-2.90;99.90
23411;DHT22;11878;51.774;7.220;2022-11-20T01:42:46;-2.80;99.90
23411;DHT22;11878;51.774;7.220;2022-11-20T01:46:18;-2.90;99.90
23411;DHT22;11878;51.774;7.220;2022-11-20T01:49:23;-2.80;99.90
23411;DHT22;11878;51.774;7.220;2022-11-20T01:52:34;-2.80;99.90
23411;DHT22;11878;51.774;7.220;2022-11-20T01:55:59;-2.80;99.90
23411;DHT22;11878;51.774;7.220;2022-11-20T01:59:01;-2.80;99.90
23411;DHT22;11878;51.774;7.220;2022-11-20T02:02:03;-3.00;99.90
23411;DHT22;11878;51.774;7.220;2022-11-20T02:05:18;-3.00;99.90
23411;DHT22;11878;51.774;7.220;2022-11-20T02:08:22;-3.00;99.90
23411;DHT22;11878;51.774;7.220;2022-11-20T02:11:24;-2.90;99.90
23411;DHT22;11878;51.774;7.220;2022-11-20T02:14:26;-2.90;99.90
23411;DHT22;11878;51.774;7.220;2022-11-20T02:17:28;-2.90;99.90
23411;DHT22;11878;51.774;7.220;2022-11-20T02:20:29;-2.80;99.90
23411;DHT22;11878;51.774;7.220;2022-11-20T02:27:02;-2.90;99.90
23411;DHT22;11878;51.774;7.220;2022-11-20T02:30:05;-2.90;99.90
23411;DHT22;11878;51.774;7.220;2022-11-20T02:33:12;-2.90;99.90
23411;DHT22;11878;51.774;7.220;2022-11-20T02:36:15;-2.90;99.90
23411;DHT22;11878;51.774;7.220;2022-11-20T02:39:17;-2.90;99.90
23411;DHT22;11878;51.774;7.220;2022-11-20T02:42:20;-2.90;99.90
23411;DHT22;11878;51.774;7.220;2022-11-20T02:45:23;-2.90;99.90
23411;DHT22;11878;51.774;7.220;2022-11-20T02:48:25;-2.90;99.90
23411;DHT22;11878;51.774;7.220;2022-11-20T02:51:31;-3.10;99.90
23411;DHT22;11878;51.774;7.220;2022-11-20T02:54:33;-2.40;99.90
23411;DHT22;11878;51.774;7.220;2022-11-20T02:57:35;-3.00;99.90
23411;DHT22;11878;51.774;7.220;2022-11-20T03:00:37;-3.00;99.90
23411;DHT22;11878;51.774;7.220;2022-11-20T03:03:38;-3.10;99.90
23411;DHT22;11878;51.774;7.220;2022-11-20T03:06:40;-3.20;99.90
23411;DHT22;11878;51.774;7.220;2022-11-20T03:09:42;-3.10;99.90
23411;DHT22;11878;51.774;7.220;2022-11-20T03:12:43;-3.20;99.90
23411;DHT22;11878;51.774;7.220;2022-11-20T03:15:45;-3.20;99.90
23411;DHT22;11878;51.774;7.220;2022-11-20T03:18:47;-3.30;99.90
23411;DHT22;11878;51.774;7.220;2022-11-20T03:21:49;-3.30;99.90
23411;DHT22;11878;51.774;7.220;2022-11-20T03:24:50;-3.30;99.90
23411;DHT22;11878;51.774;7.220;2022-11-20T03:27:53;-3.20;99.90
23411;DHT22;11878;51.774;7.220;2022-11-20T03:30:54;-3.40;99.90
23411;DHT22;11878;51.774;7.220;2022-11-20T03:33:57;-3.40;99.90
23411;DHT22;11878;51.774;7.220;2022-11-20T03:37:00;-3.40;99.90
23411;DHT22;11878;51.774;7.220;2022-11-20T03:40:01;-3.40;99.90
23411;DHT22;11878;51.774;7.220;2022-11-20T03:43:03;-3.40;99.90
23411;DHT22;11878;51.774;7.220;2022-11-20T03:46:06;-3.50;99.90
23411;DHT22;11878;51.774;7.220;2022-11-20T03:49:08;-3.40;99.90
23411;DHT22;11878;51.774;7.220;2022-11-20T03:52:09;-3.40;99.90
23411;DHT22;11878;51.774;7.220;2022-11-20T03:55:11;-3.50;99.90
23411;DHT22;11878;51.774;7.220;2022-11-20T03:58:13;-3.40;99.90
23411;DHT22;11878;51.774;7.220;2022-11-20T04:01:23;-3.50;99.90
23411;DHT22;11878;51.774;7.220;2022-11-20T04:04:25;-3.40;99.90
23411;DHT22;11878;51.774;7.220;2022-11-20T04:07:27;-3.50;99.90
23411;DHT22;11878;51.774;7.220;2022-11-20T04:10:28;-3.50;99.90
23411;DHT22;11878;51.774;7.220;2022-11-20T04:13:30;-3.40;99.90
23411;DHT22;11878;51.774;7.220;2022-11-20T04:16:34;-3.40;99.90
23411;DHT22;11878;51.774;7.220;2022-11-20T04:19:36;-3.40;99.90
23411;DHT22;11878;51.774;7.220;2022-11-20T04:22:38;-3.40;99.90
23411;DHT22;11878;51.774;7.220;2022-11-20T04:25:40;-3.40;99.90
23411;DHT22;11878;51.774;7.220;2022-11-20T04:28:41;-3.30;99.90
23411;DHT22;11878;51.774;7.220;2022-11-20T04:31:43;-3.40;99.90
23411;DHT22;11878;51.774;7.220;2022-11-20T04:34:45;-3.50;99.90
23411;DHT22;11878;51.774;7.220;2022-11-20T04:37:46;-3.50;99.90
23411;DHT22;11878;51.774;7.220;2022-11-20T04:40:48;-3.60;99.90
23411;DHT22;11878;51.774;7.220;2022-11-20T04:43:52;-3.50;99.90
23411;DHT22;11878;51.774;7.220;2022-11-20T04:46:53;-3.50;99.90
23411;DHT22;11878;51.774;7.220;2022-11-20T04:49:55;-3.50;99.90
23411;DHT22;11878;51.774;7.220;2022-11-20T04:52:57;-3.60;99.90
23411;DHT22;11878;51.774;7.220;2022-11-20T04:56:00;-3.70;99.90
23411;DHT22;11878;51.774;7.220;2022-11-20T04:59:02;-3.70;99.90
23411;DHT22;11878;51.774;7.220;2022-11-20T05:02:04;-3.60;99.90
23411;DHT22;11878;51.774;7.220;2022-11-20T05:05:06;-3.70;99.90
23411;DHT22;11878;51.774;7.220;2022-11-20T05:08:08;-3.60;99.90
23411;DHT22;11878;51.774;7.220;2022-11-20T05:11:12;-3.70;99.90
23411;DHT22;11878;51.774;7.220;2022-11-20T05:14:15;-3.70;99.90
23411;DHT22;11878;51.774;7.220;2022-11-20T05:17:16;-3.80;99.90
23411;DHT22;11878;51.774;7.220;2022-11-20T05:20:19;-3.60;99.90
23411;DHT22;11878;51.774;7.220;2022-11-20T05:23:21;-3.60;99.90
23411;DHT22;11878;51.774;7.220;2022-11-20T05:26:23;-3.60;99.90
23411;DHT22;11878;51.774;7.220;2022-11-20T05:29:24;-3.60;99.90
23411;DHT22;11878;51.774;7.220;2022-11-20T05:32:26;-3.60;99.90
23411;DHT22;11878;51.774;7.220;2022-11-20T05:35:28;-3.60;99.90
23411;DHT22;11878;51.774;7.220;2022-11-20T05:38:30;-3.70;99.90
23411;DHT22;11878;51.774;7.220;2022-11-20T05:41:33;-3.90;99.90
23411;DHT22;11878;51.774;7.220;2022-11-20T05:44:35;-3.90;99.90
23411;DHT22;11878;51.774;7.220;2022-11-20T05:47:36;-3.80;99.90
23411;DHT22;11878;51.774;7.220;2022-11-20T05:50:38;-3.90;99.90
23411;DHT22;11878;51.774;7.220;2022-11-20T05:53:39;-3.70;99.90
23411;DHT22;11878;51.774;7.220;2022-11-20T05:56:48;-3.60;99.90
23411;DHT22;11878;51.774;7.220;2022-11-20T05:59:50;-3.50;99.90
23411;DHT22;11878;51.774;7.220;2022-11-20T06:02:52;-3.70;99.90
23411;DHT22;11878;51.774;7.220;2022-11-20T06:05:53;-3.70;99.90
23411;DHT22;11878;51.774;7.220;2022-11-20T06:08:55;-3.70;99.90
23411;DHT22;11878;51.774;7.220;2022-11-20T06:11:57;-3.70;99.90
23411;DHT22;11878;51.774;7.220;2022-11-20T06:14:59;-3.90;99.90
23411;DHT22;11878;51.774;7.220;2022-11-20T06:18:01;-4.00;99.90
23411;DHT22;11878;51.774;7.220;2022-11-20T06:24:06;-4.10;99.90
23411;DHT22;11878;51.774;7.220;2022-11-20T06:27:09;-4.20;99.90
23411;DHT22;11878;51.774;7.220;2022-11-20T06:30:12;-4.10;99.90
23411;DHT22;11878;51.774;7.220;2022-11-20T06:33:13;-4.10;99.90
23411;DHT22;11878;51.774;7.220;2022-11-20T06:36:17;-4.00;99.90
23411;DHT22;11878;51.774;7.220;2022-11-20T06:39:19;-4.10;99.90
23411;DHT22;11878;51.774;7.220;2022-11-20T06:42:21;-4.10;99.90
23411;DHT22;11878;51.774;7.220;2022-11-20T06:45:23;-4.10;99.90
23411;DHT22;11878;51.774;7.220;2022-11-20T06:48:28;-4.20;99.90
23411;DHT22;11878;51.774;7.220;2022-11-20T06:51:30;-4.20;99.90
23411;DHT22;11878;51.774;7.220;2022-11-20T06:54:31;-4.20;99.90
23411;DHT22;11878;51.774;7.220;2022-11-20T06:57:33;-4.20;99.90
23411;DHT22;11878;51.774;7.220;2022-11-20T07:00:35;-4.10;99.90
23411;DHT22;11878;51.774;7.220;2022-11-20T07:03:37;-4.20;99.90
23411;DHT22;11878;51.774;7.220;2022-11-20T07:06:39;-4.20;99.90
23411;DHT22;11878;51.774;7.220;2022-11-20T07:09:41;-4.10;99.90
23411;DHT22;11878;51.774;7.220;2022-11-20T07:12:48;-4.00;99.90
23411;DHT22;11878;51.774;7.220;2022-11-20T07:15:50;-4.00;99.90
23411;DHT22;11878;51.774;7.220;2022-11-20T07:18:52;-3.90;99.90
23411;DHT22;11878;51.774;7.220;2022-11-20T07:21:53;-3.90;99.90
23411;DHT22;11878;51.774;7.220;2022-11-20T07:24:55;-3.80;99.90
23411;DHT22;11878;51.774;7.220;2022-11-20T07:27:57;-3.90;99.90
23411;DHT22;11878;51.774;7.220;2022-11-20T07:31:00;-3.80;99.90
23411;DHT22;11878;51.774;7.220;2022-11-20T07:34:01;-3.80;99.90
23411;DHT22;11878;51.774;7.220;2022-11-20T07:37:03;-3.80;99.90
23411;DHT22;11878;51.774;7.220;2022-11-20T07:40:14;-3.70;99.90
23411;DHT22;11878;51.774;7.220;2022-11-20T07:43:16;-3.60;99.90
23411;DHT22;11878;51.774;7.220;2022-11-20T07:46:18;-3.60;99.90
23411;DHT22;11878;51.774;7.220;2022-11-20T07:49:20;-3.50;99.90
23411;DHT22;11878;51.774;7.220;2022-11-20T07:52:22;-3.60;99.90
23411;DHT22;11878;51.774;7.220;2022-11-20T07:55:24;-3.60;99.90
23411;DHT22;11878;51.774;7.220;2022-11-20T07:58:25;-3.40;99.90
23411;DHT22;11878;51.774;7.220;2022-11-20T08:01:27;-3.30;99.90
23411;DHT22;11878;51.774;7.220;2022-11-20T08:04:29;-3.30;99.90
23411;DHT22;11878;51.774;7.220;2022-11-20T08:07:38;-3.10;99.90
23411;DHT22;11878;51.774;7.220;2022-11-20T08:10:40;-3.20;99.90
23411;DHT22;11878;51.774;7.220;2022-11-20T08:13:42;-3.20;99.90
23411;DHT22;11878;51.774;7.220;2022-11-20T08:17:02;-3.10;99.90
23411;DHT22;11878;51.774;7.220;2022-11-20T08:20:04;-3.20;99.90
23411;DHT22;11878;51.774;7.220;2022-11-20T08:23:07;-2.90;99.90
23411;DHT22;11878;51.774;7.220;2022-11-20T08:26:09;-2.80;99.90
23411;DHT22;11878;51.774;7.220;2022-11-20T08:29:10;-2.80;99.90
23411;DHT22;11878;51.774;7.220;2022-11-20T08:32:12;-2.90;99.90
23411;DHT22;11878;51.774;7.220;2022-11-20T08:35:14;-2.90;99.90
23411;DHT22;11878;51.774;7.220;2022-11-20T08:38:15;-2.80;99.90
23411;DHT22;11878;51.774;7.220;2022-11-20T08:41:17;-2.60;99.90
23411;DHT22;11878;51.774;7.220;2022-11-20T08:44:25;-2.60;99.90
23411;DHT22;11878;51.774;7.220;2022-11-20T08:47:27;-2.40;99.90
23411;DHT22;11878;51.774;7.220;2022-11-20T08:50:28;-2.30;99.90
23411;DHT22;11878;51.774;7.220;2022-11-20T08:53:33;-2.20;99.90
23411;DHT22;11878;51.774;7.220;2022-11-20T08:56:35;-2.10;99.90
23411;DHT22;11878;51.774;7.220;2022-11-20T08:59:36;-2.10;99.90
23411;DHT22;11878;51.774;7.220;2022-11-20T09:02:58;-1.90;99.90
23411;DHT22;11878;51.774;7.220;2022-11-20T09:06:02;-1.80;99.90
23411;DHT22;11878;51.774;7.220;2022-11-20T09:09:04;-1.60;99.90
23411;DHT22;11878;51.774;7.220;2022-11-20T09:12:19;-1.50;99.90
23411;DHT22;11878;51.774;7.220;2022-11-20T09:15:21;-1.40;99.90
23411;DHT22;11878;51.774;7.220;2022-11-20T09:18:23;-1.20;99.90
23411;DHT22;11878;51.774;7.220;2022-11-20T09:21:25;-1.00;99.90
23411;DHT22;11878;51.774;7.220;2022-11-20T09:24:27;-0.90;99.90
23411;DHT22;11878;51.774;7.220;2022-11-20T09:27:29;-0.70;99.90
23411;DHT22;11878;51.774;7.220;2022-11-20T09:30:31;-0.40;99.90
23411;DHT22;11878;51.774;7.220;2022-11-20T09:33:32;-0.20;99.90
23411;DHT22;11878;51.774;7.220;2022-11-20T09:36:34;0.20;99.90
23411;DHT22;11878;51.774;7.220;2022-11-20T09:39:36;0.20;99.90
23411;DHT22;11878;51.774;7.220;2022-11-20T09:42:47;0.60;99.90
23411;DHT22;11878;51.774;7.220;2022-11-20T09:46:14;1.00;99.90
23411;DHT22;11878;51.774;7.220;2022-11-20T09:49:49;1.20;99.90
23411;DHT22;11878;51.774;7.220;2022-11-20T09:56:34;1.30;99.90
23411;DHT22;11878;51.774;7.220;2022-11-20T09:59:55;1.20;99.90
23411;DHT22;11878;51.774;7.220;2022-11-20T10:03:21;1.00;99.90
23411;DHT22;11878;51.774;7.220;2022-11-20T10:06:31;0.80;99.90
23411;DHT22;11878;51.774;7.220;2022-11-20T10:09:39;1.00;99.90
23411;DHT22;11878;51.774;7.220;2022-11-20T10:30:13;1.40;99.90
23411;DHT22;11878;51.774;7.220;2022-11-20T10:33:23;1.40;99.90
23411;DHT22;11878;51.774;7.220;2022-11-20T10:36:31;1.60;99.90
23411;DHT22;11878;51.774;7.220;2022-11-20T10:39:51;1.80;99.90
23411;DHT22;11878;51.774;7.220;2022-11-20T10:42:58;2.40;99.90
23411;DHT22;11878;51.774;7.220;2022-11-20T10:46:16;2.60;99.90
23411;DHT22;11878;51.774;7.220;2022-11-20T10:49:19;3.20;99.90
23411;DHT22;11878;51.774;7.220;2022-11-20T10:52:33;3.50;99.90
23411;DHT22;11878;51.774;7.220;2022-11-20T10:56:00;3.50;99.90
23411;DHT22;11878;51.774;7.220;2022-11-20T11:05:57;3.00;99.90
23411;DHT22;11878;51.774;7.220;2022-11-20T11:09:13;2.90;99.90
23411;DHT22;11878;51.774;7.220;2022-11-20T11:12:16;2.90;99.90
23411;DHT22;11878;51.774;7.220;2022-11-20T11:18:32;3.90;99.90
23411;DHT22;11878;51.774;7.220;2022-11-20T11:21:35;3.90;99.90
23411;DHT22;11878;51.774;7.220;2022-11-20T11:24:52;3.80;99.90
23411;DHT22;11878;51.774;7.220;2022-11-20T11:27:58;3.80;99.90
23411;DHT22;11878;51.774;7.220;2022-11-20T11:30:59;3.60;99.90
23411;DHT22;11878;51.774;7.220;2022-11-20T11:34:15;3.70;99.90
23411;DHT22;11878;51.774;7.220;2022-11-20T11:37:20;3.70;99.90
23411;DHT22;11878;51.774;7.220;2022-11-20T11:40:23;3.70;99.90
23411;DHT22;11878;51.774;7.220;2022-11-20T11:43:29;3.80;99.90
23411;DHT22;11878;51.774;7.220;2022-11-20T11:46:58;3.80;99.90
23411;DHT22;11878;51.774;7.220;2022-11-20T11:50:27;3.70;99.90
23411;DHT22;11878;51.774;7.220;2022-11-20T11:53:30;3.80;99.90
23411;DHT22;11878;51.774;7.220;2022-11-20T11:56:33;3.60;99.90
23411;DHT22;11878;51.774;7.220;2022-11-20T11:59:54;3.60;99.90
23411;DHT22;11878;51.774;7.220;2022-11-20T12:06:39;3.70;99.90
23411;DHT22;11878;51.774;7.220;2022-11-20T12:09:48;3.70;99.90
23411;DHT22;11878;51.774;7.220;2022-11-20T12:13:53;3.80;99.90
23411;DHT22;11878;51.774;7.220;2022-11-20T12:16:37;3.80;99.90
23411;DHT22;11878;51.774;7.220;2022-11-20T12:19:39;3.80;99.90
23411;DHT22;11878;51.774;7.220;2022-11-20T12:23:01;3.70;99.90
23411;DHT22;11878;51.774;7.220;2022-11-20T12:26:29;3.80;99.90
23411;DHT22;11878;51.774;7.220;2022-11-20T12:37:00;4.30;99.90
23411;DHT22;11878;51.774;7.220;2022-11-20T12:40:24;4.60;99.90
23411;DHT22;11878;51.774;7.220;2022-11-20T12:43:43;4.90;99.90
23411;DHT22;11878;51.774;7.220;2022-11-20T12:47:29;4.60;99.90
23411;DHT22;11878;51.774;7.220;2022-11-20T12:54:32;4.00;99.90
23411;DHT22;11878;51.774;7.220;2022-11-20T13:01:00;3.80;99.90
23411;DHT22;11878;51.774;7.220;2022-11-20T13:04:27;3.80;99.90
23411;DHT22;11878;51.774;7.220;2022-11-20T13:07:33;4.00;99.90
23411;DHT22;11878;51.774;7.220;2022-11-20T13:10:43;3.90;99.90
23411;DHT22;11878;51.774;7.220;2022-11-20T13:14:08;3.70;99.90
23411;DHT22;11878;51.774;7.220;2022-11-20T13:17:30;3.70;99.90
23411;DHT22;11878;51.774;7.220;2022-11-20T13:20:36;3.60;99.90
23411;DHT22;11878;51.774;7.220;2022-11-20T13:23:42;3.50;99.90
23411;DHT22;11878;51.774;7.220;2022-11-20T13:26:44;3.50;99.90
23411;DHT22;11878;51.774;7.220;2022-11-20T13:29:58;3.50;99.90
23411;DHT22;11878;51.774;7.220;2022-11-20T13:33:08;3.50;99.90
23411;DHT22;11878;51.774;7.220;2022-11-20T13:36:23;3.60;99.90
23411;DHT22;11878;51.774;7.220;2022-11-20T13:39:27;3.60;99.90
23411;DHT22;11878;51.774;7.220;2022-11-20T13:42:29;3.60;99.90
23411;DHT22;11878;51.774;7.220;2022-11-20T13:45:32;3.70;99.90
23411;DHT22;11878;51.774;7.220;2022-11-20T13:48:39;3.70;99.90
23411;DHT22;11878;51.774;7.220;2022-11-20T13:51:46;3.70;99.90
23411;DHT22;11878;51.774;7.220;2022-11-20T13:55:03;3.60;99.90
23411;DHT22;11878;51.774;7.220;2022-11-20T13:58:31;3.60;99.90
23411;DHT22;11878;51.774;7.220;2022-11-20T14:01:37;3.60;99.90
23411;DHT22;11878;51.774;7.220;2022-11-20T14:04:43;3.60;99.90
23411;DHT22;11878;51.774;7.220;2022-11-20T14:07:46;3.70;99.90
23411;DHT22;11878;51.774;7.220;2022-11-20T14:10:49;3.90;99.90
23411;DHT22;11878;51.774;7.220;2022-11-20T14:14:10;3.80;99.90
23411;DHT22;11878;51.774;7.220;2022-11-20T14:17:33;3.80;99.90
23411;DHT22;11878;51.774;7.220;2022-11-20T14:20:35;3.80;99.90
23411;DHT22;11878;51.774;7.220;2022-11-20T14:23:38;3.70;99.90
23411;DHT22;11878;51.774;7.220;2022-11-20T14:26:44;3.60;99.90
23411;DHT22;11878;51.774;7.220;2022-11-20T14:29:48;3.40;99.90
23411;DHT22;11878;51.774;7.220;2022-11-20T14:32:52;3.40;99.90
23411;DHT22;11878;51.774;7.220;2022-11-20T14:35:56;3.40;99.90
23411;DHT22;11878;51.774;7.220;2022-11-20T14:38:59;3.30;99.90
23411;DHT22;11878;51.774;7.220;2022-11-20T14:42:01;3.20;99.90
23411;DHT22;11878;51.774;7.220;2022-11-20T14:45:03;3.30;99.90
23411;DHT22;11878;51.774;7.220;2022-11-20T14:48:05;3.10;99.90
23411;DHT22;11878;51.774;7.220;2022-11-20T14:51:10;3.20;99.90
23411;DHT22;11878;51.774;7.220;2022-11-20T14:54:19;3.20;99.90
23411;DHT22;11878;51.774;7.220;2022-11-20T14:57:26;3.20;99.90
23411;DHT22;11878;51.774;7.220;2022-11-20T15:00:29;3.20;99.90
23411;DHT22;11878;51.774;7.220;2022-11-20T15:03:36;3.10;99.90
23411;DHT22;11878;51.774;7.220;2022-11-20T15:06:48;3.20;99.90
23411;DHT22;11878;51.774;7.220;2022-11-20T15:10:01;3.20;99.90
23411;DHT22;11878;51.774;7.220;2022-11-20T15:13:05;3.20;99.90
23411;DHT22;11878;51.774;7.220;2022-11-20T15:16:18;3.20;99.90
23411;DHT22;11878;51.774;7.220;2022-11-20T15:19:25;3.10;99.90
23411;DHT22;11878;51.774;7.220;2022-11-20T15:22:27;3.10;99.90
23411;DHT22;11878;51.774;7.220;2022-11-20T15:25:29;3.10;99.90
23411;DHT22;11878;51.774;7.220;2022-11-20T15:28:35;3.10;99.90
23411;DHT22;11878;51.774;7.220;2022-11-20T15:31:39;3.10;99.90
23411;DHT22;11878;51.774;7.220;2022-11-20T15:34:46;3.10;99.90
23411;DHT22;11878;51.774;7.220;2022-11-20T15:37:47;3.10;99.90
23411;DHT22;11878;51.774;7.220;2022-11-20T15:40:49;3.10;99.90
23411;DHT22;11878;51.774;7.220;2022-11-20T15:43:51;3.00;99.90
23411;DHT22;11878;51.774;7.220;2022-11-20T15:46:52;3.10;99.90
23411;DHT22;11878;51.774;7.220;2022-11-20T15:49:54;3.20;99.90
23411;DHT22;11878;51.774;7.220;2022-11-20T15:52:56;3.20;99.90
23411;DHT22;11878;51.774;7.220;2022-11-20T15:55:57;3.20;99.90
23411;DHT22;11878;51.774;7.220;2022-11-20T15:58:59;3.10;99.90
23411;DHT22;11878;51.774;7.220;2022-11-20T16:02:01;3.00;99.90
23411;DHT22;11878;51.774;7.220;2022-11-20T16:05:03;3.00;99.90
23411;DHT22;11878;51.774;7.220;2022-11-20T16:08:05;3.00;99.90
23411;DHT22;11878;51.774;7.220;2022-11-20T16:11:14;3.00;99.90
23411;DHT22;11878;51.774;7.220;2022-11-20T16:14:16;2.90;99.90
23411;DHT22;11878;51.774;7.220;2022-11-20T16:17:36;2.90;99.90
23411;DHT22;11878;51.774;7.220;2022-11-20T16:20:47;2.80;99.90
23411;DHT22;11878;51.774;7.220;2022-11-20T16:23:49;2.90;99.90
23411;DHT22;11878;51.774;7.220;2022-11-20T16:26:50;2.90;99.90
23411;DHT22;11878;51.774;7.220;2022-11-20T16:29:54;2.90;99.90
23411;DHT22;11878;51.774;7.220;2022-11-20T16:32:55;2.90;99.90
23411;DHT22;11878;51.774;7.220;2022-11-20T16:35:57;2.80;99.90
23411;DHT22;11878;51.774;7.220;2022-11-20T16:39:00;2.80;99.90
23411;DHT22;11878;51.774;7.220;2022-11-20T16:42:05;2.80;99.90
23411;DHT22;11878;51.774;7.220;2022-11-20T16:45:07;2.90;99.90
23411;DHT22;11878;51.774;7.220;2022-11-20T16:48:12;2.80;99.90
23411;DHT22;11878;51.774;7.220;2022-11-20T16:51:13;2.80;99.90
23411;DHT22;11878;51.774;7.220;2022-11-20T16:54:15;2.90;99.90
23411;DHT22;11878;51.774;7.220;2022-11-20T16:57:22;2.80;99.90
23411;DHT22;11878;51.774;7.220;2022-11-20T17:00:23;2.90;99.90
23411;DHT22;11878;51.774;7.220;2022-11-20T17:03:25;2.90;99.90
23411;DHT22;11878;51.774;7.220;2022-11-20T17:06:30;3.00;99.90
23411;DHT22;11878;51.774;7.220;2022-11-20T17:09:33;3.00;99.90
23411;DHT22;11878;51.774;7.220;2022-11-20T17:12:36;2.90;99.90
23411;DHT22;11878;51.774;7.220;2022-11-20T17:15:37;2.80;99.90
23411;DHT22;11878;51.774;7.220;2022-11-20T17:18:39;2.80;99.90
23411;DHT22;11878;51.774;7.220;2022-11-20T17:21:41;2.80;99.90
23411;DHT22;11878;51.774;7.220;2022-11-20T17:24:43;2.80;99.90
23411;DHT22;11878;51.774;7.220;2022-11-20T17:27:44;2.90;99.90
23411;DHT22;11878;51.774;7.220;2022-11-20T17:30:46;2.80;99.90
23411;DHT22;11878;51.774;7.220;2022-11-20T17:33:48;2.90;99.90
23411;DHT22;11878;51.774;7.220;2022-11-20T17:36:50;2.90;99.90
23411;DHT22;11878;51.774;7.220;2022-11-20T17:39:51;2.90;99.90
23411;DHT22;11878;51.774;7.220;2022-11-20T17:42:53;2.80;99.90
23411;DHT22;11878;51.774;7.220;2022-11-20T17:45:55;2.70;99.90
23411;DHT22;11878;51.774;7.220;2022-11-20T17:48:57;2.70;99.90
23411;DHT22;11878;51.774;7.220;2022-11-20T17:51:58;2.80;99.90
23411;DHT22;11878;51.774;7.220;2022-11-20T17:55:00;2.90;99.90
23411;DHT22;11878;51.774;7.220;2022-11-20T17:58:02;2.80;99.90
23411;DHT22;11878;51.774;7.220;2022-11-20T18:01:07;2.80;99.90
23411;DHT22;11878;51.774;7.220;2022-11-20T18:04:10;2.80;99.90
23411;DHT22;11878;51.774;7.220;2022-11-20T18:07:12;2.80;99.90
23411;DHT22;11878;51.774;7.220;2022-11-20T18:10:13;2.90;99.90
23411;DHT22;11878;51.774;7.220;2022-11-20T18:13:15;2.90;99.90
23411;DHT22;11878;51.774;7.220;2022-11-20T18:16:17;2.90;99.90
23411;DHT22;11878;51.774;7.220;2022-11-20T18:19:21;2.80;99.90
23411;DHT22;11878;51.774;7.220;2022-11-20T18:22:23;2.90;99.90
23411;DHT22;11878;51.774;7.220;2022-11-20T18:25:25;2.90;99.90
23411;DHT22;11878;51.774;7.220;2022-11-20T18:28:26;2.90;99.90
23411;DHT22;11878;51.774;7.220;2022-11-20T18:31:28;2.80;99.90
23411;DHT22;11878;51.774;7.220;2022-11-20T18:34:30;2.80;99.90
23411;DHT22;11878;51.774;7.220;2022-11-20T18:37:32;2.80;99.90
23411;DHT22;11878;51.774;7.220;2022-11-20T18:40:35;2.70;99.90
23411;DHT22;11878;51.774;7.220;2022-11-20T18:43:37;2.80;99.90
23411;DHT22;11878;51.774;7.220;2022-11-20T18:46:57;2.80;99.90
23411;DHT22;11878;51.774;7.220;2022-11-20T18:50:00;2.80;99.90
23411;DHT22;11878;51.774;7.220;2022-11-20T18:53:02;2.90;99.90
23411;DHT22;11878;51.774;7.220;2022-11-20T18:56:04;2.90;99.90
23411;DHT22;11878;51.774;7.220;2022-11-20T18:59:08;2.90;99.90
23411;DHT22;11878;51.774;7.220;2022-11-20T19:02:15;2.90;99.90
23411;DHT22;11878;51.774;7.220;2022-11-20T19:05:17;2.90;99.90
23411;DHT22;11878;51.774;7.220;2022-11-20T19:08:19;3.00;99.90
23411;DHT22;11878;51.774;7.220;2022-11-20T19:11:21;2.90;99.90
23411;DHT22;11878;51.774;7.220;2022-11-20T19:14:23;3.00;99.90
23411;DHT22;11878;51.774;7.220;2022-11-20T19:17:25;2.90;99.90
23411;DHT22;11878;51.774;7.220;2022-11-20T19:20:26;2.90;99.90
23411;DHT22;11878;51.774;7.220;2022-11-20T19:23:29;2.90;99.90
23411;DHT22;11878;51.774;7.220;2022-11-20T19:26:30;2.90;99.90
23411;DHT22;11878;51.774;7.220;2022-11-20T19:29:34;2.90;99.90
23411;DHT22;11878;51.774;7.220;2022-11-20T19:32:36;3.00;99.90
23411;DHT22;11878;51.774;7.220;2022-11-20T19:35:38;3.00;99.90
23411;DHT22;11878;51.774;7.220;2022-11-20T19:38:40;1.70;99.90
23411;DHT22;11878;51.774;7.220;2022-11-20T19:41:48;3.00;99.90
23411;DHT22;11878;51.774;7.220;2022-11-20T19:44:50;3.00;99.90
23411;DHT22;11878;51.774;7.220;2022-11-20T19:47:51;3.10;99.90
23411;DHT22;11878;51.774;7.220;2022-11-20T19:51:16;3.00;99.90
23411;DHT22;11878;51.774;7.220;2022-11-20T19:54:18;3.00;99.90
23411;DHT22;11878;51.774;7.220;2022-11-20T19:57:20;3.00;99.90
23411;DHT22;11878;51.774;7.220;2022-11-20T20:00:22;3.10;99.90
23411;DHT22;11878;51.774;7.220;2022-11-20T20:03:32;2.80;99.90
23411;DHT22;11878;51.774;7.220;2022-11-20T20:06:35;3.00;99.90
23411;DHT22;11878;51.774;7.220;2022-11-20T20:09:39;2.90;99.90
23411;DHT22;11878;51.774;7.220;2022-11-20T20:12:40;2.90;99.90
23411;DHT22;11878;51.774;7.220;2022-11-20T20:15:42;2.90;99.90
23411;DHT22;11878;51.774;7.220;2022-11-20T20:18:44;2.80;99.90
23411;DHT22;11878;51.774;7.220;2022-11-20T20:21:46;2.90;99.90
23411;DHT22;11878;51.774;7.220;2022-11-20T20:24:48;2.80;99.90
23411;DHT22;11878;51.774;7.220;2022-11-20T20:27:52;2.90;99.90
23411;DHT22;11878;51.774;7.220;2022-11-20T20:30:54;2.90;99.90
23411;DHT22;11878;51.774;7.220;2022-11-20T20:33:56;2.90;99.90
23411;DHT22;11878;51.774;7.220;2022-11-20T20:36:58;2.90;99.90